createdAt,value
2023-02-09T00:03:34.065Z,8.18
2023-02-09T00:06:23.278Z,8.20
2023-02-09T00:09:10.453Z,9.53
2023-02-09T00:12:16.143Z,8.82
2023-02-09T00:15:04.441Z,8.15
2023-02-09T00:17:51.425Z,9.13
2023-02-09T00:20:38.442Z,10.15
2023-02-09T00:23:25.903Z,8.65
2023-02-09T00:26:13.055Z,8.85
2023-02-09T00:29:00.254Z,8.45
2023-02-09T00:31:47.374Z,8.30
2023-02-09T00:34:34.405Z,8.10
2023-02-09T00:37:21.411Z,8.70
2023-02-09T00:40:09.031Z,9.93
2023-02-09T00:42:56.093Z,9.88
2023-02-09T00:45:43.094Z,9.02
2023-02-09T00:48:30.424Z,10.35
2023-02-09T00:51:17.565Z,8.77
2023-02-09T00:54:04.852Z,8.55
2023-02-09T00:56:52.082Z,8.88
2023-02-09T00:59:40.947Z,8.60
2023-02-09T01:02:28.168Z,7.55
2023-02-09T01:05:15.242Z,8.73
2023-02-09T01:08:02.281Z,8.13
2023-02-09T01:13:57.608Z,8.38
2023-02-09T01:16:45.641Z,9.75
2023-02-09T01:19:33.619Z,9.82
2023-02-09T01:22:21.625Z,10.52
2023-02-09T01:25:09.844Z,10.43
2023-02-09T01:27:57.339Z,9.25
2023-02-09T01:30:45.196Z,10.20
2023-02-09T01:33:33.594Z,10.30
2023-02-09T01:36:21.997Z,10.18
2023-02-09T01:39:12.750Z,10.77
2023-02-09T01:42:00.314Z,10.65
2023-02-09T01:44:47.782Z,11.32
2023-02-09T01:47:44.401Z,11.23
2023-02-09T01:50:37.691Z,11.07
2023-02-09T01:53:25.867Z,11.48
2023-02-09T01:56:19.069Z,11.90
2023-02-09T01:59:07.506Z,10.50
2023-02-09T02:01:55.049Z,11.18
2023-02-09T02:04:44.807Z,10.88
2023-02-09T02:07:39.135Z,11.18
2023-02-09T02:10:26.649Z,9.95
2023-02-09T02:13:14.297Z,12.20
2023-02-09T02:16:38.838Z,11.52
2023-02-09T02:19:53.469Z,10.95
2023-02-09T02:22:59.542Z,10.90
2023-02-09T02:26:07.010Z,10.38
2023-02-09T02:29:03.217Z,11.00
2023-02-09T02:32:13.433Z,10.75
2023-02-09T02:38:25.343Z,10.65
2023-02-09T02:41:29.207Z,12.35
2023-02-09T02:44:19.023Z,9.82
2023-02-09T02:47:08.920Z,10.60
2023-02-09T02:50:03.422Z,10.35
2023-02-09T02:52:56.693Z,11.73
2023-02-09T02:55:47.140Z,11.52
2023-02-09T02:58:36.841Z,12.05
2023-02-09T03:01:27.987Z,11.68
2023-02-09T03:04:16.311Z,10.50
2023-02-09T03:07:07.726Z,11.80
2023-02-09T03:09:56.757Z,10.80
2023-02-09T03:13:16.855Z,10.85
2023-02-09T03:16:24.952Z,10.20
2023-02-09T03:19:35.677Z,9.38
2023-02-09T03:22:34.855Z,10.18
2023-02-09T03:25:32.063Z,10.60
2023-02-09T03:28:27.537Z,10.15
2023-02-09T03:31:15.792Z,9.57
2023-02-09T03:34:03.932Z,10.50
2023-02-09T03:36:54.612Z,10.82
2023-02-09T03:39:42.071Z,10.05
2023-02-09T03:42:29.108Z,10.48
2023-02-09T03:45:16.290Z,10.18
2023-02-09T03:48:05.243Z,10.23
2023-02-09T03:50:52.317Z,11.00
2023-02-09T03:53:39.580Z,10.75
2023-02-09T03:56:26.642Z,11.48
2023-02-09T03:59:13.651Z,11.35
2023-02-09T04:02:01.503Z,9.13
2023-02-09T04:04:48.561Z,9.52
2023-02-09T04:07:35.742Z,8.57
2023-02-09T04:10:22.792Z,9.48
2023-02-09T04:13:09.806Z,9.82
2023-02-09T04:15:57.173Z,9.88
2023-02-09T04:18:45.420Z,11.05
2023-02-09T04:21:32.759Z,10.65
2023-02-09T04:24:21.555Z,10.27
2023-02-09T04:27:08.606Z,9.63
2023-02-09T04:29:55.642Z,11.48
2023-02-09T04:32:42.671Z,11.55
2023-02-09T04:35:29.823Z,10.95
2023-02-09T04:38:19.601Z,10.18
2023-02-09T04:41:07.153Z,10.45
2023-02-09T04:43:54.211Z,11.73
2023-02-09T04:46:41.301Z,10.95
2023-02-09T04:49:28.323Z,11.32
2023-02-09T04:52:15.413Z,11.25
2023-02-09T04:55:02.527Z,11.57
2023-02-09T04:58:08.481Z,11.43
2023-02-09T05:00:57.110Z,10.43
2023-02-09T05:03:44.261Z,11.30
2023-02-09T05:06:31.319Z,11.95
2023-02-09T05:09:18.351Z,11.55
2023-02-09T05:12:05.659Z,10.48
2023-02-09T05:14:52.708Z,11.88
2023-02-09T05:17:40.387Z,11.80
2023-02-09T05:20:27.403Z,12.25
2023-02-09T05:23:14.643Z,12.35
2023-02-09T05:26:01.763Z,12.25
2023-02-09T05:28:48.837Z,12.02
2023-02-09T05:31:36.079Z,11.75
2023-02-09T05:34:23.294Z,12.02
2023-02-09T05:37:10.365Z,12.13
2023-02-09T05:39:57.426Z,12.75
2023-02-09T05:42:44.538Z,12.15
2023-02-09T05:45:31.608Z,12.63
2023-02-09T05:48:18.708Z,11.73
2023-02-09T05:51:06.188Z,12.73
2023-02-09T05:53:54.188Z,12.07
2023-02-09T05:56:41.253Z,12.23
2023-02-09T05:59:28.595Z,10.60
2023-02-09T06:02:15.681Z,11.45
2023-02-09T06:05:02.824Z,12.05
2023-02-09T06:07:50.053Z,11.93
2023-02-09T06:10:37.236Z,12.38
2023-02-09T06:13:24.289Z,13.45
2023-02-09T06:16:11.445Z,12.02
2023-02-09T06:18:58.643Z,11.68
2023-02-09T06:21:46.342Z,11.57
2023-02-09T06:24:33.565Z,11.98
2023-02-09T06:27:20.682Z,11.45
2023-02-09T06:30:08.410Z,11.82
2023-02-09T06:32:55.540Z,12.80
2023-02-09T06:35:42.636Z,17.17
2023-02-09T06:38:34.840Z,15.48
2023-02-09T06:41:21.908Z,14.23
2023-02-09T06:44:09.284Z,13.18
2023-02-09T06:46:56.337Z,12.43
2023-02-09T06:49:43.439Z,14.85
2023-02-09T06:52:30.630Z,13.93
2023-02-09T06:55:17.837Z,14.35
2023-02-09T06:58:05.332Z,13.52
2023-02-09T07:00:52.360Z,13.57
2023-02-09T07:03:39.418Z,12.57
2023-02-09T07:06:26.472Z,13.95
2023-02-09T07:09:13.492Z,14.10
2023-02-09T07:12:00.565Z,14.45
2023-02-09T07:14:47.625Z,14.45
2023-02-09T07:17:34.693Z,16.15
2023-02-09T07:20:21.718Z,18.77
2023-02-09T07:23:08.772Z,17.67
2023-02-09T07:25:56.212Z,14.38
2023-02-09T07:28:43.641Z,15.35
2023-02-09T07:31:30.867Z,15.95
2023-02-09T07:34:18.032Z,14.00
2023-02-09T07:37:05.729Z,17.77
2023-02-09T07:39:53.013Z,14.85
2023-02-09T07:42:40.088Z,14.75
2023-02-09T07:45:27.152Z,13.32
2023-02-09T07:48:14.266Z,16.15
2023-02-09T07:51:01.468Z,15.20
2023-02-09T07:53:48.496Z,15.45
2023-02-09T07:56:35.586Z,13.80
2023-02-09T07:59:22.652Z,14.02
2023-02-09T08:02:18.723Z,14.15
2023-02-09T08:05:12.401Z,14.23
2023-02-09T08:07:59.646Z,13.82
2023-02-09T08:10:46.751Z,13.63
2023-02-09T08:13:38.099Z,12.40
2023-02-09T08:16:29.712Z,11.98
2023-02-09T08:19:23.025Z,11.52
2023-02-09T08:22:10.593Z,12.00
2023-02-09T08:25:00.357Z,13.50
2023-02-09T08:27:47.717Z,13.10
2023-02-09T08:30:35.778Z,12.82
2023-02-09T08:33:22.850Z,12.90
2023-02-09T08:36:12.112Z,12.80
2023-02-09T08:38:59.146Z,13.50
2023-02-09T08:41:46.532Z,12.60
2023-02-09T08:44:33.839Z,12.35
2023-02-09T08:47:21.025Z,12.43
2023-02-09T08:50:08.491Z,12.85
2023-02-09T08:52:58.039Z,13.15
2023-02-09T08:55:45.319Z,13.25
2023-02-09T08:58:33.763Z,14.60
2023-02-09T09:01:20.836Z,13.13
2023-02-09T09:04:08.173Z,12.85
2023-02-09T09:06:55.428Z,11.93
2023-02-09T09:09:42.548Z,12.80
2023-02-09T09:12:30.318Z,13.43
2023-02-09T09:15:17.403Z,12.80
2023-02-09T09:18:04.448Z,11.57
2023-02-09T09:20:52.193Z,12.18
2023-02-09T09:23:39.242Z,11.95
2023-02-09T09:26:26.425Z,11.25
2023-02-09T09:29:13.948Z,10.20
2023-02-09T09:32:01.788Z,10.35
2023-02-09T09:34:48.868Z,9.80
2023-02-09T09:37:35.968Z,11.48
2023-02-09T09:40:30.017Z,9.70
2023-02-09T09:43:29.291Z,10.80
2023-02-09T09:46:20.400Z,10.07
2023-02-09T09:49:19.675Z,8.27
2023-02-09T09:52:20.227Z,9.27
2023-02-09T09:55:09.122Z,9.40
2023-02-09T09:58:00.803Z,8.40
2023-02-09T10:00:50.344Z,8.52
2023-02-09T10:03:37.363Z,8.80
2023-02-09T10:06:24.670Z,8.32
2023-02-09T10:09:40.683Z,7.93
2023-02-09T10:12:39.832Z,7.50
2023-02-09T10:15:32.865Z,7.88
2023-02-09T10:18:27.412Z,7.55
2023-02-09T10:21:15.826Z,7.00
2023-02-09T10:24:13.032Z,6.97
2023-02-09T10:27:34.548Z,7.25
2023-02-09T10:30:28.463Z,7.10
2023-02-09T10:33:16.100Z,7.43
2023-02-09T10:36:06.293Z,7.50
2023-02-09T10:41:53.753Z,6.53
2023-02-09T10:44:49.074Z,6.40
2023-02-09T10:47:36.176Z,7.38
2023-02-09T10:50:23.235Z,7.40
2023-02-09T10:53:21.454Z,6.57
2023-02-09T10:56:24.190Z,6.55
2023-02-09T10:59:17.631Z,7.18
2023-02-09T11:02:35.167Z,6.15
2023-02-09T11:05:22.189Z,6.80
2023-02-09T11:08:22.049Z,7.00
2023-02-09T11:11:16.768Z,7.82
2023-02-09T11:14:09.987Z,6.60
2023-02-09T11:17:24.620Z,6.72
2023-02-09T11:20:23.393Z,6.28
2023-02-09T11:23:38.129Z,5.95
2023-02-09T11:26:36.962Z,6.00
2023-02-09T11:29:29.988Z,5.90
2023-02-09T11:32:32.904Z,6.53
2023-02-09T11:35:25.838Z,7.72
2023-02-09T11:38:17.417Z,6.38
2023-02-09T11:41:32.542Z,6.47
2023-02-09T11:44:48.680Z,6.30
2023-02-09T11:48:02.658Z,6.68
2023-02-09T11:51:05.981Z,6.95
2023-02-09T11:54:13.296Z,6.28
2023-02-09T11:57:05.772Z,6.60
2023-02-09T11:59:59.223Z,6.68
2023-02-09T12:02:58.300Z,7.13
2023-02-09T12:05:45.925Z,6.78
2023-02-09T12:08:45.569Z,6.00
2023-02-09T12:11:32.650Z,6.72
2023-02-09T12:14:19.776Z,6.20
2023-02-09T12:17:23.375Z,6.38
2023-02-09T12:20:50.782Z,6.47
2023-02-09T12:23:40.666Z,5.95
2023-02-09T12:26:54.126Z,5.97
2023-02-09T12:29:41.838Z,5.95
2023-02-09T12:32:43.305Z,5.93
2023-02-09T12:35:39.516Z,6.80
2023-02-09T12:38:56.422Z,5.72
2023-02-09T12:41:45.257Z,4.88
2023-02-09T12:44:32.345Z,5.20
2023-02-09T12:47:46.163Z,5.22
2023-02-09T12:50:47.298Z,4.90
2023-02-09T12:53:44.418Z,5.35
2023-02-09T12:56:33.528Z,4.32
2023-02-09T12:59:26.322Z,4.10
2023-02-09T13:02:22.297Z,4.28
2023-02-09T13:05:39.719Z,4.03
2023-02-09T13:08:37.015Z,3.65
2023-02-09T13:11:40.677Z,3.85
2023-02-09T13:14:29.607Z,2.80
2023-02-09T13:17:38.721Z,3.38
2023-02-09T13:20:35.481Z,3.20
2023-02-09T13:24:01.171Z,3.30
2023-02-09T13:26:57.116Z,3.20
2023-02-09T13:29:53.863Z,3.72
2023-02-09T13:33:01.855Z,3.53
2023-02-09T13:36:29.668Z,3.83
2023-02-09T13:39:24.214Z,3.00
2023-02-09T13:42:30.582Z,3.20
2023-02-09T13:45:18.711Z,3.03
2023-02-09T13:48:20.310Z,2.95
2023-02-09T13:51:16.979Z,3.05
2023-02-09T13:54:04.278Z,3.80
2023-02-09T13:57:03.851Z,3.00
2023-02-09T13:59:51.111Z,2.97
2023-02-09T14:02:44.010Z,3.15
2023-02-09T14:06:04.882Z,3.55
2023-02-09T14:08:53.517Z,3.15
2023-02-09T14:11:53.534Z,3.17
2023-02-09T14:15:05.777Z,3.28
2023-02-09T14:17:55.301Z,3.10
2023-02-09T14:20:58.078Z,3.25
2023-02-09T14:23:57.221Z,3.17
2023-02-09T14:26:53.768Z,3.10
2023-02-09T14:29:46.979Z,2.60
2023-02-09T14:32:45.586Z,3.10
2023-02-09T14:35:41.599Z,2.85
2023-02-09T14:38:48.013Z,2.88
2023-02-09T14:41:38.618Z,2.60
2023-02-09T14:44:33.335Z,2.58
2023-02-09T14:47:38.550Z,2.72
2023-02-09T14:50:29.634Z,2.65
2023-02-09T14:53:18.132Z,2.85
2023-02-09T14:56:05.767Z,3.05
2023-02-09T14:58:53.005Z,3.38
2023-02-09T15:01:45.585Z,2.47
2023-02-09T15:04:32.879Z,2.25
2023-02-09T15:07:35.380Z,2.55
2023-02-09T15:10:32.273Z,2.75
2023-02-09T15:13:20.358Z,2.60
2023-02-09T15:16:09.069Z,2.85
2023-02-09T15:18:56.378Z,3.28
2023-02-09T15:21:43.536Z,3.70
2023-02-09T15:24:31.051Z,3.70
2023-02-09T15:27:24.008Z,3.20
2023-02-09T15:30:17.384Z,3.17
2023-02-09T15:33:06.428Z,3.45
2023-02-09T15:35:53.682Z,3.50
2023-02-09T15:38:40.794Z,3.00
2023-02-09T15:41:47.833Z,2.88
2023-02-09T15:44:53.585Z,2.60
2023-02-09T15:47:49.789Z,2.85
2023-02-09T15:50:47.184Z,2.80
2023-02-09T15:53:34.622Z,3.00
2023-02-09T15:56:22.342Z,3.33
2023-02-09T15:59:19.491Z,2.92
2023-02-09T16:02:15.440Z,2.75
2023-02-09T16:05:02.782Z,2.55
2023-02-09T16:07:52.024Z,2.92
2023-02-09T16:10:39.465Z,3.03
2023-02-09T16:13:27.108Z,3.05
2023-02-09T16:16:17.318Z,2.92
2023-02-09T16:19:05.205Z,3.17
2023-02-09T16:21:56.673Z,2.72
2023-02-09T16:24:47.282Z,3.20
2023-02-09T16:27:34.853Z,2.83
2023-02-09T16:30:38.313Z,3.00
2023-02-09T16:33:26.860Z,2.70
2023-02-09T16:36:17.354Z,2.72
2023-02-09T16:39:06.942Z,3.75
2023-02-09T16:41:54.687Z,3.03
2023-02-09T16:44:44.422Z,3.40
2023-02-09T16:47:32.404Z,3.80
2023-02-09T16:50:30.928Z,3.65
2023-02-09T16:53:36.490Z,3.40
2023-02-09T16:56:26.550Z,4.32
2023-02-09T16:59:14.081Z,4.43
2023-02-09T17:02:40.071Z,5.00
2023-02-09T17:06:03.379Z,5.40
2023-02-09T17:09:04.037Z,5.68
2023-02-09T17:12:10.655Z,4.90
2023-02-09T17:15:01.469Z,5.05
2023-02-09T17:17:57.492Z,5.28
2023-02-09T17:21:12.771Z,4.45
2023-02-09T17:24:04.174Z,4.68
2023-02-09T17:26:53.181Z,5.57
2023-02-09T17:29:44.705Z,5.80
2023-02-09T17:32:32.731Z,5.47
2023-02-09T17:35:44.490Z,5.20
2023-02-09T17:38:37.085Z,4.72
2023-02-09T17:41:45.057Z,5.68
2023-02-09T17:44:46.454Z,5.32
2023-02-09T17:47:40.939Z,4.80
2023-02-09T17:50:32.822Z,5.35
2023-02-09T17:53:23.061Z,5.45
2023-02-09T17:59:10.202Z,5.20
2023-02-09T18:01:59.283Z,5.38
2023-02-09T18:04:48.867Z,5.32
2023-02-09T18:07:40.822Z,5.40
2023-02-09T18:10:32.166Z,5.15
2023-02-09T18:13:27.616Z,5.20
2023-02-09T18:16:15.788Z,4.90
2023-02-09T18:19:04.291Z,5.43
2023-02-09T18:21:59.057Z,5.00
2023-02-09T18:24:47.995Z,4.65
2023-02-09T18:27:37.852Z,4.78
2023-02-09T18:30:30.842Z,4.63
2023-02-09T18:33:22.256Z,5.13
2023-02-09T18:36:10.992Z,5.05
2023-02-09T18:38:58.966Z,4.63
2023-02-09T18:41:54.821Z,5.38
2023-02-09T18:44:44.128Z,5.43
2023-02-09T18:47:33.872Z,5.22
2023-02-09T18:50:32.077Z,4.93
2023-02-09T18:53:22.763Z,5.75
2023-02-09T18:56:18.456Z,6.75
2023-02-09T18:59:07.111Z,7.28
2023-02-09T19:04:32.116Z,6.63
2023-02-09T19:07:20.687Z,6.00
2023-02-09T19:10:14.490Z,6.50
2023-02-09T19:13:05.101Z,6.20
2023-02-09T19:15:53.136Z,5.30
2023-02-09T19:18:41.520Z,4.95
2023-02-09T19:21:31.002Z,5.43
2023-02-09T19:24:21.607Z,5.35
2023-02-09T19:27:12.228Z,5.07
2023-02-09T19:30:00.035Z,5.10
2023-02-09T19:32:48.376Z,5.63
2023-02-09T19:35:37.048Z,4.75
2023-02-09T19:38:26.524Z,5.30
2023-02-09T19:41:15.264Z,4.85
2023-02-09T19:44:05.132Z,4.47
2023-02-09T19:46:53.205Z,4.50
2023-02-09T19:49:41.992Z,5.57
2023-02-09T19:52:30.301Z,5.50
2023-02-09T19:55:18.480Z,5.25
2023-02-09T19:58:06.016Z,4.82
2023-02-09T20:00:57.154Z,4.35
2023-02-09T20:03:45.318Z,5.30
2023-02-09T20:06:36.800Z,4.88
2023-02-09T20:09:24.389Z,5.10
2023-02-09T20:12:14.633Z,5.10
2023-02-09T20:15:02.855Z,5.35
2023-02-09T20:17:50.993Z,5.30
2023-02-09T20:20:42.939Z,5.47
2023-02-09T20:23:31.636Z,6.63
2023-02-09T20:26:27.191Z,6.05
2023-02-09T20:29:17.285Z,5.88
2023-02-09T20:32:06.629Z,6.28
2023-02-09T20:34:54.830Z,6.10
2023-02-09T20:37:42.893Z,6.40
2023-02-09T20:40:31.983Z,7.03
2023-02-09T20:43:38.432Z,7.07
2023-02-09T20:46:56.681Z,7.80
2023-02-09T20:49:44.697Z,6.85
2023-02-09T20:52:32.789Z,6.90
2023-02-09T20:55:22.914Z,6.47
2023-02-09T20:58:13.900Z,5.95
2023-02-09T21:01:02.044Z,6.88
2023-02-09T21:03:54.643Z,6.68
2023-02-09T21:06:43.918Z,6.18
2023-02-09T21:09:31.794Z,6.50
2023-02-09T21:12:19.410Z,6.63
2023-02-09T21:15:08.439Z,6.57
2023-02-09T21:17:56.695Z,7.03
2023-02-09T21:20:46.106Z,6.88
2023-02-09T21:23:33.531Z,6.68
2023-02-09T21:26:22.827Z,6.55
2023-02-09T21:29:10.975Z,5.47
2023-02-09T21:32:01.461Z,5.50
2023-02-09T21:34:48.632Z,5.10
2023-02-09T21:37:37.912Z,5.20
2023-02-09T21:40:25.325Z,5.67
2023-02-09T21:43:12.650Z,5.60
2023-02-09T21:45:59.935Z,6.55
2023-02-09T21:48:46.986Z,5.95
2023-02-09T21:51:35.016Z,5.90
2023-02-09T21:54:22.504Z,6.10
2023-02-09T21:57:09.682Z,6.35
2023-02-09T21:59:56.864Z,6.82
2023-02-09T22:02:45.053Z,6.25
2023-02-09T22:05:32.099Z,5.60
2023-02-09T22:08:19.194Z,6.55
2023-02-09T22:11:07.144Z,6.65
2023-02-09T22:13:54.646Z,6.80
2023-02-09T22:16:42.607Z,6.88
2023-02-09T22:19:29.718Z,6.78
2023-02-09T22:22:16.730Z,7.55
2023-02-09T22:25:03.851Z,8.45
2023-02-09T22:27:50.996Z,8.40
2023-02-09T22:30:38.100Z,7.82
2023-02-09T22:33:25.094Z,8.52
2023-02-09T22:36:15.435Z,8.40
2023-02-09T22:39:05.251Z,7.63
2023-02-09T22:41:58.092Z,7.82
2023-02-09T22:44:45.696Z,7.78
2023-02-09T22:47:34.161Z,7.78
2023-02-09T22:50:21.236Z,8.10
2023-02-09T22:53:08.261Z,7.60
2023-02-09T22:55:55.292Z,7.40
2023-02-09T22:58:43.156Z,7.55
2023-02-09T23:01:30.848Z,8.85
2023-02-09T23:04:18.052Z,7.05
2023-02-09T23:07:05.232Z,7.65
2023-02-09T23:09:52.277Z,7.43
2023-02-09T23:12:39.436Z,7.55
2023-02-09T23:15:26.633Z,7.15
2023-02-09T23:18:13.668Z,7.40
2023-02-09T23:21:05.700Z,7.43
2023-02-09T23:23:52.741Z,7.90
2023-02-09T23:26:39.914Z,8.07
2023-02-09T23:29:28.180Z,8.07
2023-02-09T23:32:15.458Z,7.13
2023-02-09T23:35:02.529Z,7.82
2023-02-09T23:37:49.643Z,8.38
2023-02-09T23:40:40.783Z,8.18
2023-02-09T23:43:27.784Z,7.13
2023-02-09T23:46:17.346Z,8.45
2023-02-09T23:49:04.505Z,8.70
2023-02-09T23:51:51.792Z,8.73
2023-02-09T23:54:38.805Z,8.27
2023-02-09T23:57:25.862Z,8.20
